createdAt,value
2019-03-15T00:00:04.818Z,963.10
2019-03-15T00:01:05.448Z,963.07
2019-03-15T00:02:05.089Z,963.07
2019-03-15T00:03:10.403Z,963.07
2019-03-15T00:04:04.809Z,963.35
2019-03-15T00:05:05.140Z,963.12
2019-03-15T00:06:05.497Z,963.24
2019-03-15T00:07:04.586Z,963.09
2019-03-15T00:08:04.911Z,963.12
2019-03-15T00:09:04.593Z,963.21
2019-03-15T00:10:04.744Z,963.32
2019-03-15T00:11:05.414Z,963.35
2019-03-15T00:12:05.095Z,963.37
2019-03-15T00:13:05.159Z,963.32
2019-03-15T00:14:04.610Z,963.37
2019-03-15T00:15:05.453Z,963.31
2019-03-15T00:16:05.341Z,963.26
2019-03-15T00:17:04.653Z,963.43
2019-03-15T00:18:05.419Z,963.37
2019-03-15T00:19:04.947Z,963.54
2019-03-15T00:20:05.040Z,963.57
2019-03-15T00:21:05.596Z,963.45
2019-03-15T00:22:04.577Z,963.37
2019-03-15T00:23:04.851Z,963.43
2019-03-15T00:24:04.938Z,963.40
2019-03-15T00:25:04.672Z,963.45
2019-03-15T00:26:04.576Z,963.54
2019-03-15T00:27:05.121Z,963.51
2019-03-15T00:28:05.318Z,963.48
2019-03-15T00:29:04.943Z,963.60
2019-03-15T00:30:05.161Z,963.65
2019-03-15T00:31:05.503Z,963.60
2019-03-15T00:32:05.207Z,963.74
2019-03-15T00:33:05.314Z,963.60
2019-03-15T00:34:05.273Z,963.77
2019-03-15T00:35:04.998Z,963.66
2019-03-15T00:36:04.959Z,963.77
2019-03-15T00:37:04.885Z,963.63
2019-03-15T00:38:04.976Z,963.66
2019-03-15T00:39:05.027Z,963.93
2019-03-15T00:40:05.136Z,963.80
2019-03-15T00:41:05.091Z,963.77
2019-03-15T00:42:04.958Z,963.69
2019-03-15T00:43:10.337Z,963.80
2019-03-15T00:44:04.793Z,963.86
2019-03-15T00:45:08.909Z,963.80
2019-03-15T00:46:04.585Z,963.66
2019-03-15T00:47:04.822Z,963.80
2019-03-15T00:48:05.459Z,963.69
2019-03-15T00:49:04.982Z,963.80
2019-03-15T00:50:04.682Z,963.63
2019-03-15T00:51:04.678Z,963.80
2019-03-15T00:52:05.458Z,963.80
2019-03-15T00:53:05.483Z,963.80
2019-03-15T00:54:04.837Z,963.83
2019-03-15T00:55:04.986Z,963.69
2019-03-15T00:56:05.142Z,963.69
2019-03-15T00:57:05.341Z,963.78
2019-03-15T00:58:04.518Z,963.84
2019-03-15T00:59:05.182Z,963.75
2019-03-15T01:00:05.274Z,963.84
2019-03-15T01:01:04.604Z,963.86
2019-03-15T01:02:05.374Z,963.91
2019-03-15T01:03:04.920Z,963.97
2019-03-15T01:04:05.406Z,963.84
2019-03-15T01:05:05.134Z,963.78
2019-03-15T01:06:05.264Z,963.91
2019-03-15T01:07:05.459Z,963.97
2019-03-15T01:08:04.556Z,964.02
2019-03-15T01:09:04.718Z,963.91
2019-03-15T01:10:05.330Z,964.11
2019-03-15T01:11:05.481Z,964.00
2019-03-15T01:12:04.973Z,964.03
2019-03-15T01:13:05.190Z,964.03
2019-03-15T01:14:05.443Z,964.08
2019-03-15T01:15:04.812Z,964.19
2019-03-15T01:16:04.828Z,964.25
2019-03-15T01:17:04.613Z,964.11
2019-03-15T01:18:04.772Z,964.08
2019-03-15T01:19:05.460Z,964.31
2019-03-15T01:20:04.645Z,964.06
2019-03-15T01:21:04.855Z,964.26
2019-03-15T01:22:04.901Z,964.11
2019-03-15T01:23:05.051Z,964.06
2019-03-15T01:24:05.055Z,964.14
2019-03-15T01:25:04.502Z,964.14
2019-03-15T01:26:04.795Z,964.09
2019-03-15T01:27:04.895Z,964.06
2019-03-15T01:28:04.981Z,964.14
2019-03-15T01:29:04.640Z,964.11
2019-03-15T01:30:05.393Z,964.00
2019-03-15T01:31:05.546Z,964.11
2019-03-15T01:32:04.572Z,964.28
2019-03-15T01:33:05.043Z,964.25
2019-03-15T01:34:04.691Z,964.22
2019-03-15T01:35:04.702Z,964.11
2019-03-15T01:36:04.961Z,964.28
2019-03-15T01:37:05.110Z,964.22
2019-03-15T01:38:05.373Z,964.25
2019-03-15T01:39:04.586Z,964.17
2019-03-15T01:40:04.581Z,964.31
2019-03-15T01:41:05.163Z,964.20
2019-03-15T01:42:05.331Z,964.19
2019-03-15T01:43:09.869Z,964.25
2019-03-15T01:44:05.196Z,964.17
2019-03-15T01:45:05.435Z,964.48
2019-03-15T01:46:04.852Z,964.31
2019-03-15T01:47:05.046Z,964.31
2019-03-15T01:48:05.448Z,964.42
2019-03-15T01:49:04.506Z,964.50
2019-03-15T01:50:04.618Z,964.33
2019-03-15T01:51:05.224Z,964.25
2019-03-15T01:52:05.313Z,964.42
2019-03-15T01:53:04.525Z,964.56
2019-03-15T01:54:05.098Z,964.39
2019-03-15T01:55:05.336Z,964.45
2019-03-15T01:56:05.270Z,964.42
2019-03-15T01:57:05.403Z,964.45
2019-03-15T01:58:04.691Z,964.56
2019-03-15T01:59:04.660Z,964.56
2019-03-15T02:00:04.859Z,964.48
2019-03-15T02:01:05.085Z,964.53
2019-03-15T02:02:05.631Z,964.53
2019-03-15T02:03:05.098Z,964.45
2019-03-15T02:04:05.996Z,964.56
2019-03-15T02:05:04.901Z,964.56
2019-03-15T02:06:05.300Z,964.73
2019-03-15T02:07:04.619Z,964.73
2019-03-15T02:08:04.889Z,964.57
2019-03-15T02:09:04.979Z,964.65
2019-03-15T02:10:04.721Z,964.62
2019-03-15T02:11:05.302Z,964.54
2019-03-15T02:12:04.930Z,964.73
2019-03-15T02:13:05.364Z,964.76
2019-03-15T02:14:04.812Z,964.65
2019-03-15T02:15:05.154Z,964.65
2019-03-15T02:16:05.130Z,964.54
2019-03-15T02:17:04.649Z,964.46
2019-03-15T02:18:04.739Z,964.60
2019-03-15T02:19:04.985Z,964.60
2019-03-15T02:20:05.480Z,964.57
2019-03-15T02:21:04.578Z,964.66
2019-03-15T02:22:04.705Z,964.60
2019-03-15T02:23:05.337Z,964.77
2019-03-15T02:24:05.502Z,964.74
2019-03-15T02:25:04.628Z,964.71
2019-03-15T02:26:04.597Z,964.71
2019-03-15T02:27:05.380Z,964.80
2019-03-15T02:28:05.428Z,964.72
2019-03-15T02:29:04.621Z,964.69
2019-03-15T02:30:05.048Z,964.80
2019-03-15T02:31:05.173Z,964.85
2019-03-15T02:32:04.566Z,964.80
2019-03-15T02:33:06.741Z,964.93
2019-03-15T02:34:05.277Z,964.72
2019-03-15T02:35:05.622Z,964.63
2019-03-15T02:36:04.662Z,964.88
2019-03-15T02:37:07.264Z,964.77
2019-03-15T02:38:05.440Z,964.93
2019-03-15T02:39:04.894Z,964.93
2019-03-15T02:40:05.437Z,964.72
2019-03-15T02:41:05.849Z,964.88
2019-03-15T02:42:04.627Z,964.80
2019-03-15T02:43:04.820Z,964.77
2019-03-15T02:44:04.885Z,964.96
2019-03-15T02:45:06.512Z,964.77
2019-03-15T02:46:05.617Z,964.85
2019-03-15T02:47:05.519Z,964.85
2019-03-15T02:48:05.130Z,964.80
2019-03-15T02:49:05.283Z,964.87
2019-03-15T02:50:05.500Z,964.74
2019-03-15T02:51:05.012Z,964.71
2019-03-15T02:52:04.798Z,964.85
2019-03-15T02:53:05.281Z,964.74
2019-03-15T02:54:05.513Z,964.87
2019-03-15T02:55:04.623Z,964.87
2019-03-15T02:56:05.062Z,964.93
2019-03-15T02:57:05.472Z,964.87
2019-03-15T02:58:04.656Z,964.84
2019-03-15T02:59:04.835Z,964.90
2019-03-15T03:00:05.027Z,964.90
2019-03-15T03:01:05.053Z,964.90
2019-03-15T03:02:05.158Z,964.96
2019-03-15T03:03:09.787Z,964.98
2019-03-15T03:04:05.182Z,964.84
2019-03-15T03:05:05.437Z,964.98
2019-03-15T03:06:05.084Z,964.93
2019-03-15T03:07:05.076Z,965.10
2019-03-15T03:08:05.278Z,965.04
2019-03-15T03:09:05.247Z,965.01
2019-03-15T03:10:05.521Z,965.04
2019-03-15T03:11:04.958Z,964.93
2019-03-15T03:12:05.003Z,964.93
2019-03-15T03:13:04.667Z,965.09
2019-03-15T03:14:04.912Z,965.04
2019-03-15T03:15:04.871Z,965.26
2019-03-15T03:16:05.005Z,965.01
2019-03-15T03:17:05.087Z,965.18
2019-03-15T03:18:05.293Z,965.04
2019-03-15T03:19:04.734Z,965.09
2019-03-15T03:20:05.388Z,965.21
2019-03-15T03:21:04.559Z,965.32
2019-03-15T03:22:05.163Z,965.24
2019-03-15T03:23:05.138Z,965.21
2019-03-15T03:24:04.579Z,965.24
2019-03-15T03:25:04.615Z,965.32
2019-03-15T03:26:05.243Z,965.07
2019-03-15T03:27:05.544Z,965.21
2019-03-15T03:28:05.480Z,965.15
2019-03-15T03:29:05.425Z,965.43
2019-03-15T03:30:04.843Z,965.46
2019-03-15T03:31:05.350Z,965.38
2019-03-15T03:32:05.517Z,965.41
2019-03-15T03:33:05.170Z,965.43
2019-03-15T03:34:05.310Z,965.38
2019-03-15T03:35:04.705Z,965.49
2019-03-15T03:36:05.453Z,965.23
2019-03-15T03:37:04.516Z,965.26
2019-03-15T03:38:05.404Z,965.29
2019-03-15T03:39:06.812Z,965.32
2019-03-15T03:40:05.465Z,965.43
2019-03-15T03:41:05.264Z,965.18
2019-03-15T03:42:05.157Z,965.32
2019-03-15T03:43:10.686Z,965.38
2019-03-15T03:44:05.143Z,965.38
2019-03-15T03:45:04.656Z,965.32
2019-03-15T03:46:04.805Z,965.38
2019-03-15T03:47:05.367Z,965.32
2019-03-15T03:48:04.619Z,965.35
2019-03-15T03:49:05.201Z,965.43
2019-03-15T03:50:05.471Z,965.35
2019-03-15T03:51:05.094Z,965.46
2019-03-15T03:52:04.643Z,965.46
2019-03-15T03:53:05.051Z,965.40
2019-03-15T03:54:05.261Z,965.57
2019-03-15T03:55:04.958Z,965.49
2019-03-15T03:56:05.082Z,965.54
2019-03-15T03:57:04.682Z,965.57
2019-03-15T03:58:04.840Z,965.46
2019-03-15T03:59:04.886Z,965.49
2019-03-15T04:00:05.605Z,965.49
2019-03-15T04:01:07.955Z,965.46
2019-03-15T04:02:04.595Z,965.49
2019-03-15T04:03:04.591Z,965.37
2019-03-15T04:04:05.225Z,965.43
2019-03-15T04:05:05.217Z,965.60
2019-03-15T04:06:05.040Z,965.54
2019-03-15T04:07:05.499Z,965.49
2019-03-15T04:08:04.710Z,965.49
2019-03-15T04:09:04.843Z,965.49
2019-03-15T04:10:06.283Z,965.60
2019-03-15T04:11:05.050Z,965.40
2019-03-15T04:12:05.292Z,965.46
2019-03-15T04:13:04.614Z,965.60
2019-03-15T04:14:04.704Z,965.60
2019-03-15T04:15:05.298Z,965.57
2019-03-15T04:16:04.597Z,965.51
2019-03-15T04:17:04.645Z,965.54
2019-03-15T04:18:07.115Z,965.49
2019-03-15T04:19:04.799Z,965.65
2019-03-15T04:20:04.598Z,965.70
2019-03-15T04:21:04.605Z,965.62
2019-03-15T04:22:04.873Z,965.51
2019-03-15T04:23:04.917Z,965.65
2019-03-15T04:24:05.145Z,965.54
2019-03-15T04:25:07.632Z,965.67
2019-03-15T04:26:05.513Z,965.67
2019-03-15T04:27:05.095Z,965.73
2019-03-15T04:28:05.137Z,965.73
2019-03-15T04:29:05.134Z,965.67
2019-03-15T04:30:09.358Z,965.81
2019-03-15T04:31:05.145Z,965.73
2019-03-15T04:32:05.335Z,965.65
2019-03-15T04:33:04.662Z,965.60
2019-03-15T04:34:04.885Z,965.73
2019-03-15T04:35:05.084Z,965.85
2019-03-15T04:36:05.595Z,965.74
2019-03-15T04:37:05.002Z,965.96
2019-03-15T04:38:04.570Z,965.82
2019-03-15T04:39:05.063Z,965.74
2019-03-15T04:40:04.928Z,965.71
2019-03-15T04:41:04.939Z,965.68
2019-03-15T04:42:04.984Z,965.66
2019-03-15T04:43:10.196Z,965.69
2019-03-15T04:44:04.612Z,965.80
2019-03-15T04:45:04.980Z,965.80
2019-03-15T04:46:04.644Z,965.74
2019-03-15T04:47:05.067Z,965.69
2019-03-15T04:48:05.195Z,965.66
2019-03-15T04:49:04.611Z,965.69
2019-03-15T04:50:04.842Z,965.78
2019-03-15T04:51:05.181Z,965.80
2019-03-15T04:52:04.525Z,965.75
2019-03-15T04:53:05.227Z,965.83
2019-03-15T04:54:06.180Z,965.66
2019-03-15T04:55:05.128Z,965.75
2019-03-15T04:56:05.047Z,965.69
2019-03-15T04:57:05.145Z,965.78
2019-03-15T04:58:04.704Z,965.78
2019-03-15T04:59:04.838Z,965.81
2019-03-15T05:00:04.846Z,965.81
2019-03-15T05:01:04.638Z,965.72
2019-03-15T05:02:04.808Z,965.73
2019-03-15T05:03:04.940Z,965.81
2019-03-15T05:04:04.665Z,965.81
2019-03-15T05:05:05.142Z,965.98
2019-03-15T05:06:04.780Z,965.93
2019-03-15T05:07:05.338Z,965.90
2019-03-15T05:08:04.724Z,965.95
2019-03-15T05:09:04.750Z,965.90
2019-03-15T05:10:04.689Z,965.87
2019-03-15T05:11:05.597Z,965.90
2019-03-15T05:12:04.551Z,965.93
2019-03-15T05:13:04.932Z,965.81
2019-03-15T05:14:04.849Z,965.81
2019-03-15T05:15:04.973Z,965.84
2019-03-15T05:16:05.198Z,965.82
2019-03-15T05:17:05.489Z,965.82
2019-03-15T05:18:05.445Z,965.76
2019-03-15T05:19:05.048Z,965.82
2019-03-15T05:20:04.547Z,965.82
2019-03-15T05:21:04.818Z,965.87
2019-03-15T05:22:05.371Z,965.82
2019-03-15T05:23:05.467Z,965.82
2019-03-15T05:24:04.831Z,965.73
2019-03-15T05:25:05.758Z,965.90
2019-03-15T05:26:05.136Z,965.85
2019-03-15T05:27:05.343Z,965.82
2019-03-15T05:28:05.111Z,965.82
2019-03-15T05:29:04.561Z,965.62
2019-03-15T05:30:04.773Z,965.82
2019-03-15T05:31:04.920Z,965.79
2019-03-15T05:32:05.086Z,965.82
2019-03-15T05:33:04.898Z,965.76
2019-03-15T05:34:04.718Z,965.76
2019-03-15T05:35:04.804Z,965.76
2019-03-15T05:36:05.037Z,965.85
2019-03-15T05:37:05.149Z,965.88
2019-03-15T05:38:05.431Z,965.85
2019-03-15T05:39:05.091Z,965.91
2019-03-15T05:40:04.734Z,965.88
2019-03-15T05:41:04.608Z,965.79
2019-03-15T05:42:05.425Z,965.99
2019-03-15T05:43:10.456Z,965.79
2019-03-15T05:44:04.958Z,965.93
2019-03-15T05:45:04.684Z,965.91
2019-03-15T05:46:04.737Z,965.88
2019-03-15T05:47:05.304Z,965.74
2019-03-15T05:48:05.625Z,965.91
2019-03-15T05:49:05.114Z,965.96
2019-03-15T05:50:05.402Z,965.88
2019-03-15T05:51:04.991Z,965.85
2019-03-15T05:52:05.350Z,965.85
2019-03-15T05:53:05.389Z,965.93
2019-03-15T05:54:04.548Z,965.88
2019-03-15T05:55:04.519Z,965.82
2019-03-15T05:56:04.894Z,965.88
2019-03-15T05:57:05.303Z,965.82
2019-03-15T05:58:04.882Z,966.05
2019-03-15T05:59:05.851Z,965.93
2019-03-15T06:00:04.806Z,965.93
2019-03-15T06:01:05.709Z,965.93
2019-03-15T06:02:05.583Z,966.05
2019-03-15T06:03:04.586Z,966.19
2019-03-15T06:04:05.200Z,966.07
2019-03-15T06:05:05.030Z,966.16
2019-03-15T06:06:04.888Z,966.27
2019-03-15T06:07:05.189Z,966.05
2019-03-15T06:08:05.313Z,966.13
2019-03-15T06:09:04.928Z,966.04
2019-03-15T06:10:05.449Z,966.04
2019-03-15T06:11:05.012Z,966.10
2019-03-15T06:12:04.654Z,966.04
2019-03-15T06:13:04.977Z,966.07
2019-03-15T06:14:05.595Z,966.07
2019-03-15T06:15:04.999Z,966.18
2019-03-15T06:16:05.119Z,966.27
2019-03-15T06:17:04.590Z,966.41
2019-03-15T06:18:07.250Z,966.24
2019-03-15T06:19:05.153Z,966.21
2019-03-15T06:20:06.874Z,966.35
2019-03-15T06:21:04.805Z,966.21
2019-03-15T06:22:04.930Z,966.24
2019-03-15T06:23:04.953Z,966.32
2019-03-15T06:24:05.108Z,966.51
2019-03-15T06:25:05.543Z,966.49
2019-03-15T06:26:05.043Z,966.43
2019-03-15T06:27:05.082Z,966.43
2019-03-15T06:28:05.558Z,966.37
2019-03-15T06:29:05.558Z,966.31
2019-03-15T06:30:05.052Z,966.42
2019-03-15T06:31:05.572Z,966.42
2019-03-15T06:32:05.023Z,966.45
2019-03-15T06:33:05.075Z,966.45
2019-03-15T06:34:04.867Z,966.42
2019-03-15T06:35:05.280Z,966.28
2019-03-15T06:36:04.658Z,966.28
2019-03-15T06:37:05.184Z,966.19
2019-03-15T06:38:04.719Z,966.28
2019-03-15T06:39:04.842Z,966.31
2019-03-15T06:40:05.101Z,966.33
2019-03-15T06:41:05.193Z,966.28
2019-03-15T06:42:05.504Z,966.27
2019-03-15T06:43:04.743Z,966.13
2019-03-15T06:44:05.010Z,966.08
2019-03-15T06:45:05.511Z,966.19
2019-03-15T06:46:04.780Z,966.16
2019-03-15T06:47:05.220Z,966.10
2019-03-15T06:48:04.522Z,966.30
2019-03-15T06:49:05.248Z,966.16
2019-03-15T06:50:04.627Z,966.16
2019-03-15T06:51:08.903Z,966.30
2019-03-15T06:52:05.324Z,966.04
2019-03-15T06:53:04.908Z,966.27
2019-03-15T06:54:12.165Z,966.21
2019-03-15T06:55:05.918Z,966.21
2019-03-15T06:56:04.826Z,966.07
2019-03-15T06:57:05.314Z,966.12
2019-03-15T06:58:05.035Z,965.98
2019-03-15T06:59:04.643Z,966.06
2019-03-15T07:00:05.066Z,966.09
2019-03-15T07:01:05.162Z,966.06
2019-03-15T07:02:10.330Z,965.97
2019-03-15T07:03:04.748Z,965.89
2019-03-15T07:04:04.858Z,965.97
2019-03-15T07:05:05.369Z,965.86
2019-03-15T07:06:05.382Z,965.94
2019-03-15T07:07:05.285Z,965.88
2019-03-15T07:08:05.188Z,965.86
2019-03-15T07:09:05.373Z,965.74
2019-03-15T07:10:04.776Z,965.77
2019-03-15T07:11:05.013Z,965.96
2019-03-15T07:12:10.154Z,965.88
2019-03-15T07:13:04.919Z,966.02
2019-03-15T07:14:05.334Z,965.96
2019-03-15T07:15:04.526Z,966.07
2019-03-15T07:16:04.882Z,965.98
2019-03-15T07:17:05.577Z,965.98
2019-03-15T07:18:04.964Z,965.93
2019-03-15T07:19:05.379Z,966.01
2019-03-15T07:20:05.055Z,965.92
2019-03-15T07:21:05.397Z,966.06
2019-03-15T07:22:10.569Z,966.09
2019-03-15T07:23:05.054Z,965.92
2019-03-15T07:24:04.578Z,965.95
2019-03-15T07:25:05.179Z,966.03
2019-03-15T07:26:05.486Z,966.11
2019-03-15T07:27:13.812Z,966.08
2019-03-15T07:28:05.603Z,966.00
2019-03-15T07:29:05.308Z,966.08
2019-03-15T07:30:05.431Z,966.02
2019-03-15T07:31:05.217Z,965.85
2019-03-15T07:32:05.401Z,965.96
2019-03-15T07:33:05.299Z,965.96
2019-03-15T07:34:04.792Z,965.82
2019-03-15T07:35:04.897Z,965.85
2019-03-15T07:36:04.912Z,965.73
2019-03-15T07:37:04.604Z,965.93
2019-03-15T07:38:04.742Z,965.87
2019-03-15T07:39:05.380Z,965.92
2019-03-15T07:40:04.746Z,966.01
2019-03-15T07:41:04.966Z,965.95
2019-03-15T07:42:04.976Z,966.09
2019-03-15T07:43:05.864Z,965.95
2019-03-15T07:44:05.526Z,966.00
2019-03-15T07:45:05.059Z,965.97
2019-03-15T07:46:05.568Z,965.86
2019-03-15T07:47:04.734Z,965.88
2019-03-15T07:48:04.943Z,965.85
2019-03-15T07:49:05.193Z,965.97
2019-03-15T07:50:04.640Z,965.88
2019-03-15T07:51:04.618Z,965.91
2019-03-15T07:52:05.137Z,965.90
2019-03-15T07:53:09.731Z,965.88
2019-03-15T07:54:05.305Z,965.82
2019-03-15T07:55:04.996Z,965.93
2019-03-15T07:56:04.823Z,965.79
2019-03-15T07:57:05.034Z,965.76
2019-03-15T07:58:04.577Z,965.82
2019-03-15T07:59:05.522Z,965.81
2019-03-15T08:00:04.588Z,965.98
2019-03-15T08:01:05.128Z,965.90
2019-03-15T08:02:05.494Z,965.81
2019-03-15T08:03:04.825Z,965.84
2019-03-15T08:04:17.691Z,965.84
2019-03-15T08:05:05.584Z,965.92
2019-03-15T08:06:05.372Z,965.75
2019-03-15T08:07:04.858Z,965.75
2019-03-15T08:08:05.457Z,965.86
2019-03-15T08:09:04.604Z,965.97
2019-03-15T08:10:05.010Z,965.94
2019-03-15T08:11:05.327Z,965.92
2019-03-15T08:12:04.750Z,965.92
2019-03-15T08:13:10.392Z,965.94
2019-03-15T08:14:04.770Z,965.89
2019-03-15T08:15:05.111Z,965.89
2019-03-15T08:16:05.052Z,965.97
2019-03-15T08:17:04.905Z,965.94
2019-03-15T08:18:05.472Z,965.94
2019-03-15T08:19:05.575Z,965.91
2019-03-15T08:20:05.228Z,965.88
2019-03-15T08:21:04.939Z,965.82
2019-03-15T08:22:04.716Z,965.82
2019-03-15T08:23:04.873Z,965.90
2019-03-15T08:24:04.801Z,965.85
2019-03-15T08:25:04.883Z,965.85
2019-03-15T08:26:04.581Z,965.84
2019-03-15T08:27:04.792Z,965.87
2019-03-15T08:28:04.948Z,965.95
2019-03-15T08:29:04.984Z,965.93
2019-03-15T08:30:04.843Z,965.98
2019-03-15T08:31:04.943Z,965.90
2019-03-15T08:32:05.132Z,965.87
2019-03-15T08:33:11.210Z,965.89
2019-03-15T08:34:05.174Z,966.01
2019-03-15T08:35:05.483Z,965.92
2019-03-15T08:36:04.490Z,965.87
2019-03-15T08:37:05.259Z,965.98
2019-03-15T08:38:05.852Z,965.92
2019-03-15T08:39:04.718Z,965.95
2019-03-15T08:40:05.116Z,966.06
2019-03-15T08:41:04.862Z,965.92
2019-03-15T08:42:05.294Z,965.98
2019-03-15T08:43:05.405Z,965.89
2019-03-15T08:44:05.497Z,965.81
2019-03-15T08:45:04.801Z,965.89
2019-03-15T08:46:04.649Z,965.80
2019-03-15T08:47:05.362Z,965.91
2019-03-15T08:48:05.446Z,965.74
2019-03-15T08:49:04.875Z,965.97
2019-03-15T08:50:05.385Z,965.94
2019-03-15T08:51:05.486Z,965.97
2019-03-15T08:52:04.670Z,965.97
2019-03-15T08:53:04.771Z,965.97
2019-03-15T08:54:05.204Z,966.08
2019-03-15T08:55:06.380Z,966.05
2019-03-15T08:56:05.041Z,966.13
2019-03-15T08:57:05.128Z,965.99
2019-03-15T08:58:21.584Z,966.13
2019-03-15T08:59:05.329Z,966.02
2019-03-15T09:00:04.584Z,965.99
2019-03-15T09:01:04.790Z,965.96
2019-03-15T09:02:04.999Z,966.05
2019-03-15T09:03:05.778Z,966.07
2019-03-15T09:04:04.898Z,965.99
2019-03-15T09:05:05.368Z,965.93
2019-03-15T09:06:05.357Z,966.02
2019-03-15T09:07:04.917Z,965.85
2019-03-15T09:08:05.073Z,965.79
2019-03-15T09:09:05.075Z,965.82
2019-03-15T09:10:04.579Z,965.90
2019-03-15T09:11:04.786Z,965.73
2019-03-15T09:12:05.226Z,965.70
2019-03-15T09:13:05.553Z,965.76
2019-03-15T09:14:04.606Z,965.76
2019-03-15T09:15:04.776Z,965.88
2019-03-15T09:16:05.251Z,965.88
2019-03-15T09:17:04.532Z,965.96
2019-03-15T09:18:04.868Z,965.90
2019-03-15T09:19:05.028Z,965.91
2019-03-15T09:20:05.078Z,965.88
2019-03-15T09:21:04.814Z,966.05
2019-03-15T09:22:04.909Z,965.88
2019-03-15T09:23:05.291Z,966.02
2019-03-15T09:24:04.625Z,966.02
2019-03-15T09:25:20.065Z,966.05
2019-03-15T09:26:05.213Z,965.85
2019-03-15T09:27:04.926Z,966.02
2019-03-15T09:28:05.339Z,966.08
2019-03-15T09:29:05.129Z,965.85
2019-03-15T09:30:04.648Z,965.97
2019-03-15T09:31:07.908Z,965.96
2019-03-15T09:32:09.212Z,965.94
2019-03-15T09:33:05.358Z,965.85
2019-03-15T09:34:05.314Z,965.94
2019-03-15T09:35:05.467Z,965.74
2019-03-15T09:36:05.008Z,965.77
2019-03-15T09:37:05.100Z,965.74
2019-03-15T09:38:05.315Z,965.86
2019-03-15T09:39:05.283Z,965.86
2019-03-15T09:40:04.799Z,965.94
2019-03-15T09:41:05.361Z,965.71
2019-03-15T09:42:04.937Z,965.88
2019-03-15T09:43:05.094Z,966.00
2019-03-15T09:44:04.594Z,965.80
2019-03-15T09:45:04.873Z,965.66
2019-03-15T09:46:04.631Z,965.86
2019-03-15T09:47:05.003Z,965.69
2019-03-15T09:48:05.349Z,965.72
2019-03-15T09:49:04.921Z,965.83
2019-03-15T09:50:05.555Z,965.89
2019-03-15T09:51:04.678Z,965.83
2019-03-15T09:52:05.077Z,965.95
2019-03-15T09:53:06.565Z,965.75
2019-03-15T09:54:05.221Z,965.84
2019-03-15T09:55:05.266Z,965.84
2019-03-15T09:56:04.522Z,965.87
2019-03-15T09:57:04.730Z,965.61
2019-03-15T09:58:05.354Z,965.73
2019-03-15T09:59:04.759Z,965.81
2019-03-15T10:00:04.844Z,965.61
2019-03-15T10:01:05.791Z,965.67
2019-03-15T10:02:08.279Z,965.61
2019-03-15T10:03:04.965Z,965.73
2019-03-15T10:04:05.311Z,965.61
2019-03-15T10:05:11.678Z,965.59
2019-03-15T10:06:17.947Z,965.51
2019-03-15T10:07:05.050Z,965.54
2019-03-15T10:08:05.317Z,965.48
2019-03-15T10:09:04.743Z,965.45
2019-03-15T10:10:15.573Z,965.48
2019-03-15T10:11:04.466Z,965.42
2019-03-15T10:12:04.716Z,965.42
2019-03-15T10:13:06.731Z,965.48
2019-03-15T10:14:05.447Z,965.50
2019-03-15T10:15:08.352Z,965.47
2019-03-15T10:16:05.125Z,965.53
2019-03-15T10:17:05.499Z,965.41
2019-03-15T10:18:04.466Z,965.39
2019-03-15T10:19:04.949Z,965.47
2019-03-15T10:20:04.897Z,965.55
2019-03-15T10:21:04.727Z,965.41
2019-03-15T10:22:04.969Z,965.35
2019-03-15T10:23:06.802Z,965.35
2019-03-15T10:24:04.602Z,965.24
2019-03-15T10:25:04.684Z,965.43
2019-03-15T10:26:05.424Z,965.21
2019-03-15T10:27:05.025Z,965.35
2019-03-15T10:28:05.077Z,965.29
2019-03-15T10:29:17.060Z,965.32
2019-03-15T10:30:05.259Z,965.20
2019-03-15T10:31:05.263Z,965.37
2019-03-15T10:32:04.547Z,965.37
2019-03-15T10:33:04.845Z,965.23
2019-03-15T10:34:06.367Z,965.23
2019-03-15T10:35:04.985Z,965.31
2019-03-15T10:36:05.224Z,965.23
2019-03-15T10:37:06.806Z,965.34
2019-03-15T10:38:05.525Z,965.26
2019-03-15T10:39:04.606Z,965.25
2019-03-15T10:40:04.554Z,965.23
2019-03-15T10:41:04.802Z,965.28
2019-03-15T10:42:05.178Z,965.11
2019-03-15T10:43:05.053Z,965.17
2019-03-15T10:44:05.488Z,965.26
2019-03-15T10:45:04.570Z,965.28
2019-03-15T10:46:06.750Z,965.20
2019-03-15T10:47:05.302Z,965.20
2019-03-15T10:48:06.707Z,965.23
2019-03-15T10:49:05.338Z,965.14
2019-03-15T10:50:05.238Z,965.17
2019-03-15T10:51:04.589Z,965.11
2019-03-15T10:52:05.129Z,965.03
2019-03-15T10:53:05.069Z,964.91
2019-03-15T10:54:04.529Z,964.97
2019-03-15T10:55:05.178Z,964.97
2019-03-15T10:56:05.234Z,964.89
2019-03-15T10:57:05.371Z,964.91
2019-03-15T10:58:05.555Z,964.75
2019-03-15T10:59:05.001Z,964.85
2019-03-15T11:00:05.358Z,964.66
2019-03-15T11:01:04.970Z,964.85
2019-03-15T11:02:05.154Z,964.74
2019-03-15T11:03:05.349Z,964.80
2019-03-15T11:04:05.424Z,964.71
2019-03-15T11:05:05.589Z,964.77
2019-03-15T11:06:04.584Z,964.87
2019-03-15T11:07:05.416Z,964.76
2019-03-15T11:08:05.075Z,964.87
2019-03-15T11:09:04.942Z,964.79
2019-03-15T11:10:05.006Z,964.76
2019-03-15T11:11:05.353Z,964.76
2019-03-15T11:12:04.554Z,964.59
2019-03-15T11:13:04.720Z,964.70
2019-03-15T11:14:04.842Z,964.58
2019-03-15T11:15:04.884Z,964.47
2019-03-15T11:16:04.563Z,964.47
2019-03-15T11:17:04.639Z,964.58
2019-03-15T11:18:04.667Z,964.44
2019-03-15T11:19:04.784Z,964.49
2019-03-15T11:20:05.436Z,964.49
2019-03-15T11:21:05.068Z,964.49
2019-03-15T11:22:04.852Z,964.61
2019-03-15T11:23:05.297Z,964.63
2019-03-15T11:24:04.752Z,964.46
2019-03-15T11:25:04.834Z,964.61
2019-03-15T11:26:14.254Z,964.55
2019-03-15T11:27:04.985Z,964.61
2019-03-15T11:28:05.290Z,964.72
2019-03-15T11:29:04.805Z,964.57
2019-03-15T11:30:05.334Z,964.55
2019-03-15T11:31:04.759Z,964.52
2019-03-15T11:32:05.228Z,964.55
2019-03-15T11:33:04.679Z,964.55
2019-03-15T11:34:05.079Z,964.46
2019-03-15T11:35:05.244Z,964.43
2019-03-15T11:36:05.145Z,964.49
2019-03-15T11:37:05.241Z,964.46
2019-03-15T11:38:05.433Z,964.37
2019-03-15T11:39:04.642Z,964.40
2019-03-15T11:40:04.763Z,964.40
2019-03-15T11:41:05.208Z,964.34
2019-03-15T11:42:04.725Z,964.39
2019-03-15T11:43:04.724Z,964.31
2019-03-15T11:44:04.906Z,964.28
2019-03-15T11:45:05.057Z,964.13
2019-03-15T11:46:04.610Z,964.36
2019-03-15T11:47:04.937Z,964.27
2019-03-15T11:48:05.289Z,964.36
2019-03-15T11:49:05.138Z,964.30
2019-03-15T11:50:04.507Z,964.27
2019-03-15T11:51:05.268Z,964.22
2019-03-15T11:52:04.711Z,964.30
2019-03-15T11:53:04.643Z,964.19
2019-03-15T11:54:05.092Z,964.16
2019-03-15T11:55:05.544Z,964.13
2019-03-15T11:56:04.539Z,964.25
2019-03-15T11:57:05.202Z,964.27
2019-03-15T11:58:04.625Z,964.22
2019-03-15T11:59:04.855Z,964.33
2019-03-15T12:00:05.055Z,964.25
2019-03-15T12:01:04.558Z,964.33
2019-03-15T12:02:04.928Z,964.25
2019-03-15T12:03:09.586Z,964.28
2019-03-15T12:04:05.033Z,964.11
2019-03-15T12:05:04.958Z,964.14
2019-03-15T12:06:04.590Z,964.14
2019-03-15T12:07:04.854Z,964.31
2019-03-15T12:08:05.078Z,964.08
2019-03-15T12:09:04.837Z,963.99
2019-03-15T12:10:05.061Z,964.02
2019-03-15T12:11:05.054Z,964.17
2019-03-15T12:12:04.773Z,964.11
2019-03-15T12:13:04.929Z,964.22
2019-03-15T12:14:04.845Z,963.97
2019-03-15T12:15:05.250Z,964.05
2019-03-15T12:16:05.176Z,964.00
2019-03-15T12:17:05.324Z,964.03
2019-03-15T12:18:08.807Z,963.92
2019-03-15T12:19:04.518Z,964.03
2019-03-15T12:20:04.839Z,964.00
2019-03-15T12:21:05.386Z,963.95
2019-03-15T12:22:07.021Z,963.98
2019-03-15T12:23:04.759Z,964.01
2019-03-15T12:24:04.737Z,964.01
2019-03-15T12:25:05.389Z,963.95
2019-03-15T12:26:05.507Z,963.93
2019-03-15T12:27:05.512Z,964.04
2019-03-15T12:28:04.713Z,963.95